createdAt,value
2023-02-14T00:01:09.777Z,19.50
2023-02-14T00:03:36.745Z,20.47
2023-02-14T00:06:12.400Z,18.83
2023-02-14T00:08:41.178Z,21.57
2023-02-14T00:11:09.016Z,22.00
2023-02-14T00:13:35.898Z,25.63
2023-02-14T00:16:03.619Z,21.00
2023-02-14T00:18:49.113Z,24.03
2023-02-14T00:21:17.968Z,26.13
2023-02-14T00:23:45.118Z,24.17
2023-02-14T00:26:15.505Z,25.43
2023-02-14T00:28:43.342Z,24.80
2023-02-14T00:31:10.759Z,25.37
2023-02-14T00:33:37.687Z,25.90
2023-02-14T00:36:07.123Z,24.00
2023-02-14T00:38:34.389Z,23.27
2023-02-14T00:41:02.181Z,24.57
2023-02-14T00:43:29.316Z,25.60
2023-02-14T00:45:57.646Z,27.30
2023-02-14T00:48:24.609Z,23.40
2023-02-14T00:50:51.506Z,24.87
2023-02-14T00:53:18.344Z,21.17
2023-02-14T00:55:46.960Z,20.73
2023-02-14T00:58:15.073Z,21.80
2023-02-14T01:00:41.969Z,20.50
2023-02-14T01:03:08.807Z,23.37
2023-02-14T01:05:35.757Z,22.97
2023-02-14T01:08:04.429Z,24.23
2023-02-14T01:10:31.468Z,21.03
2023-02-14T01:12:59.165Z,21.30
2023-02-14T01:15:27.769Z,21.27
2023-02-14T01:17:54.654Z,18.60
2023-02-14T01:20:22.009Z,21.53
2023-02-14T01:22:48.924Z,19.97
2023-02-14T01:25:16.028Z,22.83
2023-02-14T01:27:42.842Z,19.57
2023-02-14T01:30:11.023Z,23.07
2023-02-14T01:32:37.847Z,20.53
2023-02-14T01:35:05.374Z,25.40
2023-02-14T01:37:32.236Z,23.03
2023-02-14T01:39:59.359Z,24.20
2023-02-14T01:42:26.704Z,22.57
2023-02-14T01:49:21.797Z,22.20
2023-02-14T01:52:05.712Z,23.63
2023-02-14T01:54:35.588Z,23.73
2023-02-14T01:57:08.028Z,18.90
2023-02-14T01:59:40.881Z,24.00
2023-02-14T02:02:08.325Z,26.97
2023-02-14T02:04:41.088Z,24.92
2023-02-14T02:07:12.307Z,26.03
2023-02-14T02:09:44.836Z,27.80
2023-02-14T02:12:12.292Z,21.53
2023-02-14T02:14:39.746Z,22.87
2023-02-14T02:17:33.835Z,23.77
2023-02-14T02:20:47.531Z,23.47
2023-02-14T02:23:14.223Z,21.57
2023-02-14T02:26:01.027Z,27.80
2023-02-14T02:28:58.425Z,24.90
2023-02-14T02:31:49.437Z,25.40
2023-02-14T02:34:44.532Z,24.13
2023-02-14T02:37:30.385Z,23.73
2023-02-14T02:40:18.110Z,24.13
2023-02-14T02:43:15.976Z,20.53
2023-02-14T02:46:11.652Z,29.50
2023-02-14T02:48:57.076Z,22.63
2023-02-14T02:52:12.845Z,33.43
2023-02-14T02:54:47.408Z,55.83
2023-02-14T02:57:22.577Z,27.87
2023-02-14T02:59:50.900Z,25.87
2023-02-14T03:02:59.798Z,48.30
2023-02-14T03:05:30.918Z,27.80
2023-02-14T03:07:58.029Z,24.60
2023-02-14T03:10:30.137Z,27.77
2023-02-14T03:12:59.562Z,23.10
2023-02-14T03:15:35.198Z,26.07
2023-02-14T03:18:18.349Z,24.37
2023-02-14T03:21:06.669Z,33.43
2023-02-14T03:23:36.718Z,39.47
2023-02-14T03:26:10.470Z,22.70
2023-02-14T03:28:59.209Z,25.23
2023-02-14T03:31:36.175Z,26.23
2023-02-14T03:34:21.115Z,27.87
2023-02-14T03:36:56.611Z,24.53
2023-02-14T03:39:40.396Z,32.73
2023-02-14T03:42:18.933Z,23.20
2023-02-14T03:44:49.190Z,35.87
2023-02-14T03:47:20.627Z,30.87
2023-02-14T03:49:53.452Z,24.53
2023-02-14T03:52:22.596Z,23.73
2023-02-14T03:54:52.643Z,26.03
2023-02-14T03:57:30.369Z,20.67
2023-02-14T03:59:57.501Z,21.57
2023-02-14T04:02:39.015Z,24.47
2023-02-14T04:05:12.897Z,21.87
2023-02-14T04:08:06.006Z,20.63
2023-02-14T04:10:32.780Z,21.60
2023-02-14T04:12:59.685Z,23.20
2023-02-14T04:15:26.425Z,21.37
2023-02-14T04:18:12.085Z,22.70
2023-02-14T04:20:38.882Z,19.30
2023-02-14T04:23:05.678Z,22.33
2023-02-14T04:25:32.466Z,19.30
2023-02-14T04:27:59.219Z,24.70
2023-02-14T04:30:26.120Z,22.80
2023-02-14T04:32:52.933Z,21.83
2023-02-14T04:35:19.754Z,18.23
2023-02-14T04:37:46.537Z,21.67
2023-02-14T04:40:17.305Z,21.03
2023-02-14T04:42:47.443Z,21.33
2023-02-14T04:45:14.936Z,19.00
2023-02-14T04:47:41.734Z,18.33
2023-02-14T04:50:09.022Z,18.00
2023-02-14T04:52:35.959Z,16.73
2023-02-14T04:55:04.400Z,16.83
2023-02-14T04:57:31.659Z,18.40
2023-02-14T04:59:58.446Z,16.73
2023-02-14T05:02:25.269Z,19.90
2023-02-14T05:04:52.122Z,17.40
2023-02-14T05:07:18.865Z,19.77
2023-02-14T05:09:45.629Z,17.43
2023-02-14T05:12:12.416Z,17.53
2023-02-14T05:14:39.198Z,18.13
2023-02-14T05:17:06.012Z,22.30
2023-02-14T05:19:33.940Z,20.70
2023-02-14T05:22:00.726Z,18.97
2023-02-14T05:24:27.636Z,20.10
2023-02-14T05:26:54.372Z,17.40
2023-02-14T05:29:21.248Z,21.70
2023-02-14T05:31:48.225Z,18.77
2023-02-14T05:34:15.217Z,19.47
2023-02-14T05:36:42.001Z,20.90
2023-02-14T05:39:08.791Z,19.30
2023-02-14T05:41:35.589Z,23.03
2023-02-14T05:44:02.415Z,22.57
2023-02-14T05:46:29.335Z,21.50
2023-02-14T05:48:56.096Z,20.73
2023-02-14T05:51:22.880Z,21.37
2023-02-14T05:53:49.671Z,19.73
2023-02-14T05:56:16.507Z,21.30
2023-02-14T05:58:43.911Z,20.70
2023-02-14T06:01:10.683Z,21.07
2023-02-14T06:03:37.455Z,18.00
2023-02-14T06:06:04.418Z,24.17
2023-02-14T06:08:31.234Z,21.33
2023-02-14T06:10:58.338Z,20.40
2023-02-14T06:13:25.376Z,19.30
2023-02-14T06:15:52.184Z,17.73
2023-02-14T06:18:19.056Z,16.00
2023-02-14T06:20:45.827Z,17.87
2023-02-14T06:23:12.662Z,17.10
2023-02-14T06:25:39.639Z,19.30
2023-02-14T06:28:06.692Z,19.40
2023-02-14T06:30:33.607Z,17.83
2023-02-14T06:33:00.478Z,16.10
2023-02-14T06:35:27.351Z,20.77
2023-02-14T06:37:54.238Z,17.03
2023-02-14T06:40:21.257Z,19.27
2023-02-14T06:42:48.030Z,19.87
2023-02-14T06:45:14.886Z,15.40
2023-02-14T06:47:41.708Z,15.23
2023-02-14T06:50:11.569Z,14.80
2023-02-14T06:52:38.907Z,14.20
2023-02-14T06:55:06.188Z,16.67
2023-02-14T06:57:32.992Z,17.77
2023-02-14T06:59:59.784Z,15.77
2023-02-14T07:02:26.610Z,15.43
2023-02-14T07:04:53.471Z,14.43
2023-02-14T07:07:20.250Z,14.37
2023-02-14T07:09:47.037Z,15.93
2023-02-14T07:12:13.828Z,13.93
2023-02-14T07:14:40.784Z,14.20
2023-02-14T07:17:07.622Z,15.00
2023-02-14T07:19:34.379Z,17.40
2023-02-14T07:22:01.280Z,15.30
2023-02-14T07:24:28.056Z,16.37
2023-02-14T07:26:54.822Z,16.87
2023-02-14T07:29:21.676Z,16.97
2023-02-14T07:31:49.953Z,15.63
2023-02-14T07:34:16.914Z,16.73
2023-02-14T07:36:44.198Z,18.70
2023-02-14T07:39:11.142Z,16.90
2023-02-14T07:41:38.013Z,25.40
2023-02-14T07:44:09.623Z,17.73
2023-02-14T07:46:36.526Z,18.80
2023-02-14T07:49:03.446Z,18.67
2023-02-14T07:51:30.238Z,18.87
2023-02-14T07:53:56.987Z,18.87
2023-02-14T07:56:23.965Z,18.50
2023-02-14T07:58:50.938Z,20.10
2023-02-14T08:01:18.238Z,16.90
2023-02-14T08:03:49.241Z,16.90
2023-02-14T08:06:20.101Z,18.00
2023-02-14T08:08:47.889Z,17.37
2023-02-14T08:11:33.993Z,20.00
2023-02-14T08:14:01.004Z,17.20
2023-02-14T08:16:27.874Z,16.37
2023-02-14T08:18:54.726Z,14.13
2023-02-14T08:21:21.596Z,12.47
2023-02-14T08:23:48.408Z,14.00
2023-02-14T08:26:15.757Z,12.83
2023-02-14T08:28:43.055Z,12.30
2023-02-14T08:31:10.385Z,11.23
2023-02-14T08:33:37.164Z,9.87
2023-02-14T08:36:04.339Z,13.97
2023-02-14T08:38:31.201Z,9.13
2023-02-14T08:41:05.036Z,12.57
2023-02-14T08:43:34.473Z,11.17
2023-02-14T08:46:01.905Z,9.37
2023-02-14T08:48:28.938Z,8.13
2023-02-14T08:50:55.722Z,7.90
2023-02-14T08:53:22.753Z,7.97
2023-02-14T08:55:49.551Z,8.20
2023-02-14T08:58:16.385Z,8.00
2023-02-14T09:00:43.162Z,8.17
2023-02-14T09:03:10.664Z,7.40
2023-02-14T09:05:37.513Z,8.13
2023-02-14T09:08:04.597Z,9.13
2023-02-14T09:10:31.529Z,6.90
2023-02-14T09:12:58.342Z,7.23
2023-02-14T09:15:25.204Z,6.80
2023-02-14T09:17:52.169Z,7.57
2023-02-14T09:20:19.145Z,7.33
2023-02-14T09:22:48.422Z,7.00
2023-02-14T09:25:15.990Z,6.60
2023-02-14T09:27:42.925Z,6.83
2023-02-14T09:30:10.624Z,6.67
2023-02-14T09:32:37.415Z,6.37
2023-02-14T09:35:04.494Z,6.40
2023-02-14T09:37:50.052Z,6.40
2023-02-14T09:40:19.371Z,6.20
2023-02-14T09:43:26.054Z,7.00
2023-02-14T09:45:56.656Z,5.83
2023-02-14T09:48:29.716Z,6.87
2023-02-14T09:51:11.558Z,7.00
2023-02-14T09:53:49.875Z,6.60
2023-02-14T09:56:22.604Z,6.53
2023-02-14T09:59:19.959Z,6.67
2023-02-14T10:02:16.660Z,6.77
2023-02-14T10:05:02.172Z,6.73
2023-02-14T10:07:57.250Z,5.67
2023-02-14T10:10:44.672Z,8.03
2023-02-14T10:13:22.428Z,7.47
2023-02-14T10:15:56.750Z,6.60
2023-02-14T10:18:46.144Z,6.70
2023-02-14T10:21:22.961Z,7.90
2023-02-14T10:23:55.459Z,6.40
2023-02-14T10:26:52.020Z,6.13
2023-02-14T10:29:20.077Z,6.70
2023-02-14T10:31:55.493Z,7.40
2023-02-14T10:34:29.199Z,6.73
2023-02-14T10:36:55.952Z,6.30
2023-02-14T10:39:25.707Z,6.40
2023-02-14T10:42:09.375Z,6.67
2023-02-14T10:44:54.560Z,8.00
2023-02-14T10:47:30.601Z,6.27
2023-02-14T10:50:04.373Z,6.67
2023-02-14T10:52:58.966Z,6.90
2023-02-14T10:55:46.570Z,7.33
2023-02-14T10:58:17.520Z,7.63
2023-02-14T11:01:00.493Z,7.67
2023-02-14T11:03:29.087Z,8.33
2023-02-14T11:05:56.225Z,8.07
2023-02-14T11:08:32.040Z,7.30
2023-02-14T11:11:16.459Z,7.33
2023-02-14T11:13:43.449Z,6.67
2023-02-14T11:16:18.099Z,11.77
2023-02-14T11:18:44.932Z,7.88
2023-02-14T11:21:13.553Z,5.90
2023-02-14T11:23:43.243Z,6.20
2023-02-14T11:26:34.596Z,7.90
2023-02-14T11:29:13.212Z,6.72
2023-02-14T11:31:41.917Z,7.03
2023-02-14T11:34:42.040Z,6.13
2023-02-14T11:37:23.698Z,6.90
2023-02-14T11:39:52.253Z,6.50
2023-02-14T11:42:37.360Z,6.55
2023-02-14T11:45:05.581Z,8.45
2023-02-14T11:47:37.287Z,7.57
2023-02-14T11:50:12.690Z,5.60
2023-02-14T11:52:55.698Z,5.35
2023-02-14T11:55:34.436Z,6.32
2023-02-14T11:58:05.373Z,5.88
2023-02-14T12:00:33.621Z,6.18
2023-02-14T12:03:05.510Z,5.70
2023-02-14T12:05:43.436Z,9.35
2023-02-14T12:08:11.006Z,8.48
2023-02-14T12:10:39.188Z,6.28
2023-02-14T12:13:09.293Z,7.00
2023-02-14T12:15:47.554Z,6.53
2023-02-14T12:18:40.572Z,6.35
2023-02-14T12:21:16.037Z,6.97
2023-02-14T12:23:50.766Z,6.72
2023-02-14T12:26:35.705Z,6.95
2023-02-14T12:29:34.937Z,7.25
2023-02-14T12:32:11.376Z,5.32
2023-02-14T12:34:38.353Z,6.63
2023-02-14T12:37:28.336Z,6.00
2023-02-14T12:40:04.199Z,6.30
2023-02-14T12:42:39.983Z,6.28
2023-02-14T12:45:43.462Z,6.13
2023-02-14T12:48:28.884Z,6.88
2023-02-14T12:51:15.468Z,6.43
2023-02-14T12:53:54.382Z,8.18
2023-02-14T12:56:27.201Z,6.13
2023-02-14T12:59:18.602Z,6.53
2023-02-14T13:02:13.776Z,7.32
2023-02-14T13:05:06.257Z,6.95
2023-02-14T13:07:46.780Z,7.05
2023-02-14T13:10:24.652Z,9.40
2023-02-14T13:12:56.913Z,6.60
2023-02-14T13:15:45.589Z,8.75
2023-02-14T13:18:24.520Z,7.35
2023-02-14T13:20:56.681Z,6.93
2023-02-14T13:23:40.233Z,6.28
2023-02-14T13:26:12.045Z,7.97
2023-02-14T13:28:41.864Z,7.18
2023-02-14T13:31:11.795Z,7.82
2023-02-14T13:33:43.632Z,7.05
2023-02-14T13:36:13.357Z,7.72
2023-02-14T13:38:49.221Z,9.73
2023-02-14T13:41:17.262Z,7.30
2023-02-14T13:43:56.242Z,7.77
2023-02-14T13:46:32.246Z,7.90
2023-02-14T13:49:01.836Z,7.67
2023-02-14T13:51:56.323Z,8.47
2023-02-14T13:54:32.580Z,8.13
2023-02-14T13:57:25.214Z,7.93
2023-02-14T14:00:19.836Z,9.57
2023-02-14T14:02:53.233Z,11.23
2023-02-14T14:05:42.832Z,9.63
2023-02-14T14:08:35.438Z,9.93
2023-02-14T14:11:25.492Z,11.47
2023-02-14T14:14:01.568Z,11.97
2023-02-14T14:16:33.254Z,8.63
2023-02-14T14:19:09.264Z,8.53
2023-02-14T14:21:43.502Z,8.53
2023-02-14T14:24:27.771Z,9.57
2023-02-14T14:27:13.715Z,9.40
2023-02-14T14:29:46.077Z,11.30
2023-02-14T14:32:21.531Z,8.63
2023-02-14T14:34:50.851Z,9.20
2023-02-14T14:37:20.439Z,8.83
2023-02-14T14:40:00.001Z,9.63
2023-02-14T14:42:30.806Z,9.53
2023-02-14T14:45:01.728Z,9.87
2023-02-14T14:47:37.723Z,9.27
2023-02-14T14:50:10.211Z,8.40
2023-02-14T14:52:41.620Z,8.43
2023-02-14T14:55:16.725Z,12.37
2023-02-14T14:57:49.922Z,13.23
2023-02-14T15:00:23.938Z,10.03
2023-02-14T15:03:22.548Z,11.90
2023-02-14T15:05:51.053Z,10.20
2023-02-14T15:08:30.886Z,11.13
2023-02-14T15:11:08.450Z,10.63
2023-02-14T15:13:49.922Z,12.10
2023-02-14T15:16:48.189Z,12.60
2023-02-14T15:19:37.284Z,10.93
2023-02-14T15:22:18.228Z,12.17
2023-02-14T15:24:45.538Z,13.13
2023-02-14T15:27:16.435Z,12.17
2023-02-14T15:30:03.637Z,10.47
2023-02-14T15:32:33.160Z,11.33
2023-02-14T15:35:03.739Z,11.40
2023-02-14T15:37:31.516Z,10.70
2023-02-14T15:39:59.331Z,10.57
2023-02-14T15:42:32.919Z,11.80
2023-02-14T15:45:23.639Z,11.47
2023-02-14T15:47:53.688Z,11.90
2023-02-14T15:50:26.020Z,11.17
2023-02-14T15:52:56.262Z,10.43
2023-02-14T15:55:26.733Z,13.03
2023-02-14T15:58:01.930Z,14.27
2023-02-14T16:00:29.647Z,12.83
2023-02-14T16:03:08.460Z,13.33
2023-02-14T16:05:35.429Z,11.80
2023-02-14T16:08:22.766Z,13.27
2023-02-14T16:11:35.516Z,13.57
2023-02-14T16:14:32.214Z,14.67
2023-02-14T16:17:03.719Z,17.33
2023-02-14T16:19:41.085Z,13.57
2023-02-14T16:22:32.208Z,13.80
2023-02-14T16:24:59.490Z,13.27
2023-02-14T16:27:26.212Z,14.13
2023-02-14T16:29:53.277Z,14.17
2023-02-14T16:32:22.095Z,15.77
2023-02-14T16:34:49.625Z,16.60
2023-02-14T16:37:19.818Z,15.40
2023-02-14T16:39:47.343Z,14.73
2023-02-14T16:42:18.252Z,14.90
2023-02-14T16:44:46.082Z,13.27
2023-02-14T16:47:14.581Z,15.13
2023-02-14T16:49:41.995Z,14.30
2023-02-14T16:52:16.217Z,16.67
2023-02-14T16:54:43.283Z,16.20
2023-02-14T16:57:20.663Z,19.57
2023-02-14T16:59:47.487Z,25.83
2023-02-14T17:02:14.397Z,22.97
2023-02-14T17:04:41.143Z,22.03
2023-02-14T17:07:08.211Z,21.17
2023-02-14T17:09:40.477Z,28.50
2023-02-14T17:12:16.574Z,25.07
2023-02-14T17:14:49.329Z,27.30
2023-02-14T17:17:16.495Z,28.97
2023-02-14T17:19:43.966Z,25.43
2023-02-14T17:22:13.511Z,24.07
2023-02-14T17:24:41.690Z,27.03
2023-02-14T17:27:09.892Z,30.27
2023-02-14T17:29:37.083Z,28.13
2023-02-14T17:32:04.079Z,25.53
2023-02-14T17:34:32.360Z,31.63
2023-02-14T17:36:59.658Z,23.80
2023-02-14T17:39:26.482Z,29.70
2023-02-14T17:41:53.285Z,26.37
2023-02-14T17:44:20.052Z,29.10
2023-02-14T17:46:46.919Z,45.63
2023-02-14T17:49:13.920Z,27.63
2023-02-14T17:51:40.968Z,28.00
2023-02-14T17:54:08.136Z,22.57
2023-02-14T17:56:34.896Z,22.50
2023-02-14T17:59:01.741Z,23.90
2023-02-14T18:01:31.480Z,33.43
2023-02-14T18:03:58.395Z,18.03
2023-02-14T18:06:26.617Z,40.33
2023-02-14T18:08:56.768Z,26.53
2023-02-14T18:11:26.097Z,16.67
2023-02-14T18:13:56.405Z,39.40
2023-02-14T18:16:24.693Z,47.50
2023-02-14T18:18:51.895Z,29.27
2023-02-14T18:21:20.953Z,21.00
2023-02-14T18:23:48.416Z,24.20
2023-02-14T18:26:17.035Z,25.13
2023-02-14T18:28:43.843Z,22.67
2023-02-14T18:31:16.374Z,30.43
2023-02-14T18:33:44.005Z,22.30
2023-02-14T18:36:13.637Z,22.53
2023-02-14T18:38:41.865Z,22.00
2023-02-14T18:41:12.273Z,18.40
2023-02-14T18:43:40.974Z,28.67
2023-02-14T18:46:10.449Z,32.03
2023-02-14T18:48:37.806Z,19.23
2023-02-14T18:51:16.810Z,17.10
2023-02-14T18:53:44.905Z,19.30
2023-02-14T18:56:13.948Z,25.57
2023-02-14T18:58:42.869Z,18.17
2023-02-14T19:01:23.186Z,21.70
2023-02-14T19:03:51.312Z,20.80
2023-02-14T19:06:18.831Z,21.43
2023-02-14T19:08:46.512Z,17.50
2023-02-14T19:11:16.811Z,19.10
2023-02-14T19:13:52.663Z,19.97
2023-02-14T19:16:22.677Z,23.60
2023-02-14T19:18:55.616Z,21.40
2023-02-14T19:21:25.489Z,22.70
2023-02-14T19:23:54.556Z,27.23
2023-02-14T19:26:24.438Z,23.43
2023-02-14T19:28:56.040Z,20.67
2023-02-14T19:31:23.118Z,21.20
2023-02-14T19:33:50.337Z,25.40
2023-02-14T19:36:19.304Z,19.13
2023-02-14T19:38:49.200Z,17.67
2023-02-14T19:41:25.093Z,17.03
2023-02-14T19:43:52.579Z,13.10
2023-02-14T19:46:21.189Z,13.93
2023-02-14T19:48:48.730Z,15.50
2023-02-14T19:51:27.731Z,16.53
2023-02-14T19:53:55.919Z,14.53
2023-02-14T19:56:25.807Z,14.43
2023-02-14T19:58:53.162Z,14.13
2023-02-14T20:01:30.951Z,14.33
2023-02-14T20:03:57.793Z,14.60
2023-02-14T20:06:25.550Z,14.47
2023-02-14T20:08:53.013Z,15.97
2023-02-14T20:11:31.030Z,14.67
2023-02-14T20:13:58.476Z,13.10
2023-02-14T20:16:27.261Z,15.00
2023-02-14T20:19:02.256Z,14.90
2023-02-14T20:21:31.680Z,11.70
2023-02-14T20:24:03.057Z,14.10
2023-02-14T20:26:31.345Z,15.57
2023-02-14T20:29:06.179Z,16.93
2023-02-14T20:31:34.159Z,13.43
2023-02-14T20:34:01.496Z,15.53
2023-02-14T20:36:28.989Z,15.00
2023-02-14T20:38:57.016Z,16.00
2023-02-14T20:41:24.919Z,12.17
2023-02-14T20:43:51.844Z,14.40
2023-02-14T20:46:18.693Z,15.33
2023-02-14T20:48:45.417Z,13.27
2023-02-14T20:51:15.247Z,13.77
2023-02-14T20:53:43.445Z,15.90
2023-02-14T20:56:10.683Z,14.97
2023-02-14T20:58:39.383Z,13.77
2023-02-14T21:01:10.519Z,13.87
2023-02-14T21:03:37.550Z,14.00
2023-02-14T21:06:06.655Z,14.13
2023-02-14T21:08:34.316Z,13.40
2023-02-14T21:11:01.686Z,14.13
2023-02-14T21:13:28.865Z,12.80
2023-02-14T21:15:55.685Z,16.80
2023-02-14T21:18:22.443Z,18.03
2023-02-14T21:20:50.831Z,19.63
2023-02-14T21:23:17.623Z,16.97
2023-02-14T21:25:44.367Z,18.10
2023-02-14T21:28:11.179Z,17.07
2023-02-14T21:30:38.117Z,15.60
2023-02-14T21:33:04.893Z,17.50
2023-02-14T21:35:31.635Z,16.87
2023-02-14T21:37:58.452Z,15.47
2023-02-14T21:40:25.324Z,15.00
2023-02-14T21:42:52.047Z,16.10
2023-02-14T21:45:37.315Z,15.60
2023-02-14T21:48:23.076Z,16.00
2023-02-14T21:50:49.905Z,17.63
2023-02-14T21:53:16.716Z,16.73
2023-02-14T21:55:45.919Z,16.70
2023-02-14T21:58:13.172Z,17.23
2023-02-14T22:00:40.027Z,17.73
2023-02-14T22:03:06.839Z,17.87
2023-02-14T22:05:33.603Z,17.83
2023-02-14T22:08:00.353Z,19.20
2023-02-14T22:10:27.148Z,19.23
2023-02-14T22:12:53.880Z,18.47
2023-02-14T22:15:20.596Z,17.00
2023-02-14T22:17:47.346Z,16.43
2023-02-14T22:20:14.086Z,17.77
2023-02-14T22:22:40.829Z,17.43
2023-02-14T22:25:07.793Z,17.63
2023-02-14T22:27:39.090Z,18.27
2023-02-14T22:30:07.420Z,16.63
2023-02-14T22:32:34.137Z,17.70
2023-02-14T22:35:00.913Z,20.40
2023-02-14T22:37:27.679Z,16.43
2023-02-14T22:39:54.513Z,17.53
2023-02-14T22:42:21.276Z,18.57
2023-02-14T22:44:48.075Z,18.70
2023-02-14T22:47:14.869Z,19.00
2023-02-14T22:49:41.569Z,18.13
2023-02-14T22:52:08.374Z,18.30
2023-02-14T22:54:35.215Z,17.53
2023-02-14T22:57:01.983Z,17.87
2023-02-14T22:59:31.128Z,19.87
2023-02-14T23:01:58.252Z,16.50
2023-02-14T23:04:25.903Z,16.07
2023-02-14T23:06:53.249Z,17.87
2023-02-14T23:09:20.520Z,19.33
2023-02-14T23:11:47.710Z,16.40
2023-02-14T23:14:35.086Z,18.70
2023-02-14T23:17:14.590Z,18.33
2023-02-14T23:20:01.235Z,17.70
2023-02-14T23:22:36.798Z,16.23
2023-02-14T23:25:07.579Z,17.03
2023-02-14T23:27:41.711Z,18.17
2023-02-14T23:30:13.647Z,18.17
2023-02-14T23:32:40.621Z,20.90
2023-02-14T23:35:07.556Z,19.07
2023-02-14T23:37:34.532Z,21.03
2023-02-14T23:40:01.323Z,18.47
2023-02-14T23:42:28.248Z,19.53
2023-02-14T23:45:15.005Z,19.10
2023-02-14T23:47:41.844Z,20.97
2023-02-14T23:50:09.031Z,20.37
2023-02-14T23:52:38.301Z,20.67
2023-02-14T23:55:05.679Z,18.63
2023-02-14T23:57:32.422Z,23.17
